Guatemala City, Guatemala
Current Conditions -  °F | °C
As of 10:00 PM on Tuesday 25 Nov 2014 (Local Time) from MGGT Reporting Station
Scattered Clouds Scattered Clouds  
Wind Chill: 66°   Ceiling: Unl
Heat Index: 66°   Visibility: 6mi
Dew Point: 64°   Wind: 12mph
Humidity: 94%   Direction: 360°N
Pressure: 30.3"   Gusts: NA
Location:  14.58°N, 90.52°W
Report Text: MGGT 260400Z 36010KT 9999 FEW008 SCT014 19/18 Q1026 A3030 CB/LTNGDIST S/SSW
Loading
Personal Weather Stations






























Interactive Weather Map New forecast layout! Learn more

10-Day Weather Forecast

Advertisements
Track Severe Weather on mobile